Terminal Aerodrome Forecast
Issued by NWS

Home | Current Version | Previous Version | Text Only | Print | Product List | Glossary On
Versions: 1 2 3 4 5 6 7 8 9 10 11 12
000
FTUS42 KGSP 240538
TAFAND
TAF
KAND 240538Z 2406/2506 12004KT P6SM FEW250
     FM241500 11008KT P6SM FEW250
     FM250000 10006KT P6SM FEW045
     FM250400 10006KT P6SM BKN045=

USA.gov is the U.S. government's official web portal to all federal, state and local government web resources and services.